Gennaro Ievoli — 9HA3007 — position and weather

sailwx.info

Track history (hours):
 
Tides and Currents Weather Stations Pressure Air Temp Water Temp Dewpoint Dewpoint Depression Visibility Wind Speed Wind Dir Waves Ship Positions

Gennaro Ievoli

Last reported at 2014-Sep-14 23:32 UTC. Time now 2014-Oct-26 06:00 UTC.
Position N 35°54' E 014°48'.
Warning: this ship's position is 41 days out of date.

Length 171 m; draft 10.3 m.

Type: Ship (hazmat cat D). MMSI: 229031000.

Date/timePositionNaut miles runAvg speedWind from/ knotsBaromVisibWave heightAir tempDewpointWater temp
2014-Sep-14 23:32N 35°54' E 014°48'0 0.1
2014-Sep-14 22:23N 35°54' E 014°48'0 0.0
2014-Sep-14 19:25N 35°54' E 014°48'0 0.0
2014-Sep-14 17:28N 35°54' E 014°48'0 0.0
2014-Sep-14 16:33N 35°54' E 014°48'0 0.1
2014-Sep-14 15:33N 35°54' E 014°48'8 8.5
2014-Sep-14 14:34N 35°59' E 014°39'1614.6
2014-Sep-14 13:30N 36°07' E 014°23'1414.6
2014-Sep-14 12:33N 36°14' E 014°08'45413.2
2014-Sep-13 02:10N 37°19' E 004°47'913.9
2014-Sep-13 01:30N 37°17' E 004°36'10214.3
2014-Sep-12 18:26N 36°60' E 002°30'1313.2
2014-Sep-12 17:27N 36°58' E 002°14'1213.3
2014-Sep-12 16:31N 36°56' E 001°59'1313.3
2014-Sep-12 15:33N 36°54' E 001°43'1313.5
2014-Sep-12 14:33N 36°51' E 001°27'1414.0
2014-Sep-12 13:32N 36°49' E 001°09'1413.9
2014-Sep-12 12:32N 36°46' E 000°52'  
Track history (hours):
 
Tides and Currents Weather Stations Pressure Air Temp Water Temp Dewpoint Dewpoint Depression Visibility Wind Speed Wind Dir Waves Ship Positions

Gennaro Ievoli

Last reported at 2014-Sep-14 23:32 UTC. Time now 2014-Oct-26 06:00 UTC.
Position N 35°54' E 014°48'.
Warning: this ship's position is 41 days out of date.

Length 171 m; draft 10.3 m.

Type: Ship (hazmat cat D). MMSI: 229031000.

Date/timePositionNaut miles runAvg speedWind from/ knotsBaromVisibWave heightAir tempDewpointWater temp
2014-Sep-14 23:32N 35°54' E 014°48'0 0.1
2014-Sep-14 22:23N 35°54' E 014°48'0 0.0
2014-Sep-14 19:25N 35°54' E 014°48'0 0.0
2014-Sep-14 17:28N 35°54' E 014°48'0 0.0
2014-Sep-14 16:33N 35°54' E 014°48'0 0.1
2014-Sep-14 15:33N 35°54' E 014°48'8 8.5
2014-Sep-14 14:34N 35°59' E 014°39'1614.6
2014-Sep-14 13:30N 36°07' E 014°23'1414.6
2014-Sep-14 12:33N 36°14' E 014°08'45413.2
2014-Sep-13 02:10N 37°19' E 004°47'913.9
2014-Sep-13 01:30N 37°17' E 004°36'10214.3
2014-Sep-12 18:26N 36°60' E 002°30'1313.2
2014-Sep-12 17:27N 36°58' E 002°14'1213.3
2014-Sep-12 16:31N 36°56' E 001°59'1313.3
2014-Sep-12 15:33N 36°54' E 001°43'1313.5
2014-Sep-12 14:33N 36°51' E 001°27'1414.0
2014-Sep-12 13:32N 36°49' E 001°09'1413.9
2014-Sep-12 12:32N 36°46' E 000°52'  

Dump ship's entire track history